createdAt,value
2018-11-29T00:00:39.917Z,5.80
2018-11-29T00:03:10.534Z,5.80
2018-11-29T00:05:39.624Z,5.80
2018-11-29T00:08:08.382Z,5.80
2018-11-29T00:10:37.062Z,5.70
2018-11-29T00:13:06.054Z,5.80
2018-11-29T00:15:35.028Z,5.80
2018-11-29T00:18:03.995Z,5.80
2018-11-29T00:20:33.279Z,5.80
2018-11-29T00:23:02.067Z,5.70
2018-11-29T00:25:30.832Z,5.70
2018-11-29T00:27:59.524Z,5.80
2018-11-29T00:30:28.203Z,5.80
2018-11-29T00:32:56.919Z,5.80
2018-11-29T00:35:25.623Z,5.80
2018-11-29T00:37:54.320Z,5.90
2018-11-29T00:40:23.765Z,5.90
2018-11-29T00:42:52.632Z,5.90
2018-11-29T00:45:22.303Z,5.90
2018-11-29T00:47:51.171Z,6.00
2018-11-29T00:50:20.303Z,6.00
2018-11-29T00:52:49.799Z,6.00
2018-11-29T00:55:21.732Z,6.00
2018-11-29T00:57:50.583Z,6.00
2018-11-29T01:00:20.326Z,6.00
2018-11-29T01:02:49.144Z,6.00
2018-11-29T01:05:17.839Z,6.00
2018-11-29T01:07:46.543Z,5.90
2018-11-29T01:10:15.959Z,5.90
2018-11-29T01:12:45.061Z,5.90
2018-11-29T01:15:17.760Z,5.90
2018-11-29T01:17:47.511Z,5.90
2018-11-29T01:20:17.134Z,6.00
2018-11-29T01:22:45.972Z,6.00
2018-11-29T01:25:15.323Z,6.00
2018-11-29T01:27:46.068Z,6.00
2018-11-29T01:30:15.554Z,6.00
2018-11-29T01:32:44.275Z,6.00
2018-11-29T01:35:14.751Z,6.00
2018-11-29T01:37:43.432Z,6.00
2018-11-29T01:40:18.529Z,6.00
2018-11-29T01:42:50.192Z,6.00
2018-11-29T01:45:19.350Z,6.00
2018-11-29T01:47:48.047Z,6.00
2018-11-29T01:50:16.819Z,5.90
2018-11-29T01:52:45.603Z,5.90
2018-11-29T01:55:14.343Z,5.90
2018-11-29T01:57:43.051Z,5.90
2018-11-29T02:00:14.763Z,5.80
2018-11-29T02:02:43.868Z,5.80
2018-11-29T02:05:12.837Z,5.70
2018-11-29T02:07:41.529Z,5.80
2018-11-29T02:10:16.923Z,5.80
2018-11-29T02:12:45.656Z,5.80
2018-11-29T02:15:14.518Z,5.80
2018-11-29T02:17:43.304Z,5.80
2018-11-29T02:20:14.586Z,5.70
2018-11-29T02:22:43.511Z,5.70
2018-11-29T02:25:12.242Z,5.60
2018-11-29T02:27:40.931Z,5.70
2018-11-29T02:30:12.353Z,5.60
2018-11-29T02:32:41.115Z,5.60
2018-11-29T02:35:09.887Z,5.60
2018-11-29T02:37:38.555Z,5.60
2018-11-29T02:40:09.871Z,5.50
2018-11-29T02:42:38.670Z,5.50
2018-11-29T02:45:11.774Z,5.50
2018-11-29T02:47:40.563Z,5.50
2018-11-29T02:50:10.159Z,5.50
2018-11-29T02:52:38.850Z,5.50
2018-11-29T02:55:08.712Z,5.50
2018-11-29T02:57:37.435Z,5.50
2018-11-29T03:00:15.455Z,5.50
2018-11-29T03:02:44.148Z,5.40
2018-11-29T03:05:13.102Z,5.40
2018-11-29T03:07:41.906Z,5.40
2018-11-29T03:10:11.579Z,5.40
2018-11-29T03:12:40.503Z,5.40
2018-11-29T03:15:11.460Z,5.40
2018-11-29T03:17:40.309Z,5.40
2018-11-29T03:20:10.209Z,5.40
2018-11-29T03:22:38.920Z,5.40
2018-11-29T03:25:12.731Z,5.30
2018-11-29T03:27:41.472Z,5.20
2018-11-29T03:30:19.708Z,5.20
2018-11-29T03:32:48.454Z,5.30
2018-11-29T03:35:17.165Z,5.30
2018-11-29T03:37:45.889Z,5.30
2018-11-29T03:40:15.498Z,5.30
2018-11-29T03:42:44.739Z,5.20
2018-11-29T03:45:14.455Z,5.20
2018-11-29T03:47:43.311Z,5.20
2018-11-29T03:50:15.758Z,5.20
2018-11-29T03:52:44.460Z,5.20
2018-11-29T03:55:13.255Z,5.20
2018-11-29T03:57:41.940Z,5.20
2018-11-29T04:00:14.965Z,5.20
2018-11-29T04:02:44.010Z,5.20
2018-11-29T04:05:12.860Z,5.10
2018-11-29T04:07:41.652Z,5.00
2018-11-29T04:10:12.400Z,5.00
2018-11-29T04:12:41.116Z,5.00
2018-11-29T04:15:12.039Z,5.00
2018-11-29T04:17:41.337Z,5.00
2018-11-29T04:20:11.894Z,5.00
2018-11-29T04:22:41.425Z,5.00
2018-11-29T04:25:11.400Z,4.90
2018-11-29T04:27:40.113Z,5.00
2018-11-29T04:30:13.179Z,4.90
2018-11-29T04:32:41.941Z,4.90
2018-11-29T04:35:11.070Z,4.90
2018-11-29T04:37:39.884Z,4.90
2018-11-29T04:40:10.418Z,4.90
2018-11-29T04:42:39.097Z,4.80
2018-11-29T04:45:09.727Z,4.90
2018-11-29T04:47:38.396Z,4.90
2018-11-29T04:50:07.127Z,4.80
2018-11-29T04:52:35.976Z,4.80
2018-11-29T04:55:04.789Z,4.80
2018-11-29T04:57:33.484Z,4.90
2018-11-29T05:00:02.194Z,4.90
2018-11-29T05:02:30.851Z,5.00
2018-11-29T05:04:59.522Z,5.00
2018-11-29T05:07:28.204Z,5.00
2018-11-29T05:09:56.936Z,5.00
2018-11-29T05:12:25.617Z,5.10
2018-11-29T05:14:54.331Z,5.10
2018-11-29T05:17:23.041Z,5.10
2018-11-29T05:19:51.729Z,5.20
2018-11-29T05:22:20.455Z,5.20
2018-11-29T05:24:49.141Z,5.20
2018-11-29T05:27:17.836Z,5.30
2018-11-29T05:29:46.498Z,5.30
2018-11-29T05:32:15.161Z,5.40
2018-11-29T05:34:43.817Z,5.40
2018-11-29T05:37:12.472Z,5.30
2018-11-29T05:39:41.164Z,5.40
2018-11-29T05:42:09.850Z,5.40
2018-11-29T05:44:38.533Z,5.40
2018-11-29T05:47:07.223Z,5.40
2018-11-29T05:49:35.948Z,5.40
2018-11-29T05:52:05.083Z,5.40
2018-11-29T05:54:33.821Z,5.40
2018-11-29T05:57:02.543Z,5.40
2018-11-29T05:59:31.247Z,5.40
2018-11-29T06:02:00.075Z,5.40
2018-11-29T06:04:28.759Z,5.40
2018-11-29T06:06:57.416Z,5.50
2018-11-29T06:09:26.099Z,5.40
2018-11-29T06:11:54.735Z,5.50
2018-11-29T06:14:23.428Z,5.50
2018-11-29T06:16:52.080Z,5.50
2018-11-29T06:19:20.746Z,5.60
2018-11-29T06:21:49.379Z,5.60
2018-11-29T06:24:18.048Z,5.70
2018-11-29T06:26:46.694Z,5.70
2018-11-29T06:29:15.352Z,5.70
2018-11-29T06:31:44.015Z,5.80
2018-11-29T06:34:12.671Z,5.80
2018-11-29T06:36:41.319Z,5.80
2018-11-29T06:39:09.983Z,5.80
2018-11-29T06:41:38.622Z,5.80
2018-11-29T06:44:07.282Z,5.90
2018-11-29T06:46:35.989Z,5.90
2018-11-29T06:49:04.644Z,5.90
2018-11-29T06:51:33.304Z,5.90
2018-11-29T06:54:01.951Z,5.90
2018-11-29T06:56:30.619Z,5.90
2018-11-29T06:58:59.306Z,6.00
2018-11-29T07:01:28.031Z,6.10
2018-11-29T07:03:56.796Z,6.10
2018-11-29T07:06:25.486Z,6.10
2018-11-29T07:08:54.423Z,6.00
2018-11-29T07:11:23.124Z,6.00
2018-11-29T07:13:51.823Z,6.00
2018-11-29T07:16:20.525Z,6.00
2018-11-29T07:18:49.186Z,6.00
2018-11-29T07:21:28.532Z,6.10
2018-11-29T07:23:57.305Z,6.10
2018-11-29T07:26:25.981Z,6.00
2018-11-29T07:28:54.685Z,6.10
2018-11-29T07:31:23.371Z,6.10
2018-11-29T07:33:52.075Z,6.20
2018-11-29T07:36:20.751Z,6.20
2018-11-29T07:38:49.427Z,6.30
2018-11-29T07:41:18.085Z,6.40
2018-11-29T07:43:46.760Z,6.40
2018-11-29T07:46:15.443Z,6.50
2018-11-29T07:48:44.095Z,6.50
2018-11-29T07:51:12.760Z,6.60
2018-11-29T07:53:41.411Z,6.70
2018-11-29T07:56:10.059Z,6.70
2018-11-29T07:58:38.695Z,6.70
2018-11-29T08:01:07.552Z,6.80
2018-11-29T08:03:36.207Z,6.60
2018-11-29T08:06:04.971Z,6.90
2018-11-29T08:08:33.694Z,6.90
2018-11-29T08:11:02.357Z,7.00
2018-11-29T08:13:31.088Z,7.00
2018-11-29T08:15:59.743Z,7.10
2018-11-29T08:18:28.389Z,7.10
2018-11-29T08:20:57.023Z,7.20
2018-11-29T08:23:25.671Z,7.30
2018-11-29T08:25:54.416Z,7.30
2018-11-29T08:28:23.117Z,7.40
2018-11-29T08:30:51.780Z,7.50
2018-11-29T08:33:20.515Z,7.50
2018-11-29T08:35:49.237Z,7.60
2018-11-29T08:38:17.959Z,7.70
2018-11-29T08:40:46.651Z,7.80
2018-11-29T08:43:15.319Z,7.80
2018-11-29T08:45:44.015Z,7.90
2018-11-29T08:48:12.676Z,8.00
2018-11-29T08:50:41.368Z,8.00
2018-11-29T08:53:10.092Z,8.10
2018-11-29T08:55:38.800Z,8.10
2018-11-29T08:58:07.458Z,8.20
2018-11-29T09:00:36.147Z,8.20
2018-11-29T09:03:05.300Z,8.30
2018-11-29T09:05:34.223Z,8.40
2018-11-29T09:08:03.769Z,8.50
2018-11-29T09:10:32.420Z,8.60
2018-11-29T09:13:01.113Z,8.60
2018-11-29T09:15:29.791Z,8.70
2018-11-29T09:17:58.460Z,8.70
2018-11-29T09:20:27.119Z,8.80
2018-11-29T09:22:55.823Z,8.80
2018-11-29T09:25:24.539Z,9.00
2018-11-29T09:27:53.243Z,9.10
2018-11-29T09:30:22.880Z,9.20
2018-11-29T09:32:52.684Z,9.30
2018-11-29T09:35:21.359Z,9.30
2018-11-29T09:37:50.119Z,9.40
2018-11-29T09:40:19.109Z,9.50
2018-11-29T09:42:47.982Z,9.60
2018-11-29T09:45:23.538Z,9.60
2018-11-29T09:47:53.334Z,9.70
2018-11-29T09:50:22.155Z,9.80
2018-11-29T09:52:50.867Z,9.80
2018-11-29T09:55:19.737Z,9.90
2018-11-29T09:57:49.472Z,10.00
2018-11-29T10:00:27.982Z,10.00
2018-11-29T10:02:59.722Z,10.00
2018-11-29T10:05:28.448Z,10.10
2018-11-29T10:07:57.133Z,10.20
2018-11-29T10:10:25.827Z,10.30
2018-11-29T10:12:54.515Z,10.40
2018-11-29T10:15:23.215Z,10.60
2018-11-29T10:17:51.893Z,10.80
2018-11-29T10:20:20.575Z,10.90
2018-11-29T10:22:49.252Z,11.00
2018-11-29T10:25:17.912Z,11.20
2018-11-29T10:27:49.165Z,11.40
2018-11-29T10:30:25.213Z,11.60
2018-11-29T10:32:54.005Z,11.70
2018-11-29T10:35:22.674Z,12.00
2018-11-29T10:37:51.387Z,12.10
2018-11-29T10:40:21.359Z,12.10
2018-11-29T10:42:50.564Z,12.10
2018-11-29T10:45:20.124Z,12.30
2018-11-29T10:47:52.947Z,12.30
2018-11-29T10:50:21.616Z,12.40
2018-11-29T10:52:50.379Z,12.60
2018-11-29T10:55:19.841Z,12.70
2018-11-29T10:57:48.666Z,12.80
2018-11-29T11:00:27.625Z,12.80
2018-11-29T11:03:12.065Z,12.90
2018-11-29T11:05:40.770Z,13.00
2018-11-29T11:08:09.884Z,13.00
2018-11-29T11:10:39.612Z,13.10
2018-11-29T11:13:08.420Z,13.20
2018-11-29T11:15:37.415Z,13.30
2018-11-29T11:18:07.251Z,13.40
2018-11-29T11:20:36.117Z,13.50
2018-11-29T11:23:04.880Z,13.60
2018-11-29T11:25:33.617Z,13.50
2018-11-29T11:28:02.442Z,13.50
2018-11-29T11:30:31.175Z,13.50
2018-11-29T11:32:59.939Z,13.50
2018-11-29T11:35:30.006Z,13.60
2018-11-29T11:37:58.703Z,13.70
2018-11-29T11:40:27.512Z,13.70
2018-11-29T11:42:56.199Z,13.80
2018-11-29T11:45:24.958Z,13.80
2018-11-29T11:47:53.640Z,13.80
2018-11-29T11:50:23.252Z,13.80
2018-11-29T11:52:52.568Z,13.80
2018-11-29T11:55:21.265Z,13.70
2018-11-29T11:57:50.015Z,13.60
2018-11-29T12:00:21.628Z,13.70
2018-11-29T12:02:57.569Z,13.60
2018-11-29T12:05:26.264Z,13.60
2018-11-29T12:07:55.023Z,13.60
2018-11-29T12:10:23.735Z,13.70
2018-11-29T12:12:52.603Z,13.70
2018-11-29T12:15:21.375Z,13.70
2018-11-29T12:17:50.039Z,13.70
2018-11-29T12:20:19.692Z,13.70
2018-11-29T12:22:48.433Z,13.80
2018-11-29T12:25:18.186Z,13.80
2018-11-29T12:27:46.872Z,13.80
2018-11-29T12:30:21.652Z,13.70
2018-11-29T12:32:50.747Z,13.70
2018-11-29T12:35:19.466Z,13.80
2018-11-29T12:37:48.159Z,13.80
2018-11-29T12:40:17.204Z,13.80
2018-11-29T12:42:45.967Z,13.80
2018-11-29T12:45:15.135Z,13.80
2018-11-29T12:47:44.217Z,13.80
2018-11-29T12:50:19.838Z,13.80
2018-11-29T12:52:48.610Z,13.80
2018-11-29T12:55:18.411Z,13.90
2018-11-29T12:57:47.094Z,13.90
2018-11-29T13:00:17.979Z,13.90
2018-11-29T13:05:37.363Z,13.90
2018-11-29T13:08:06.860Z,13.90
2018-11-29T13:10:35.603Z,13.90
2018-11-29T13:13:04.460Z,13.90
2018-11-29T13:15:34.127Z,13.90
2018-11-29T13:18:05.491Z,14.00
2018-11-29T13:20:34.181Z,14.00
2018-11-29T13:23:02.887Z,14.00
2018-11-29T13:25:31.597Z,14.00
2018-11-29T13:28:00.323Z,14.00
2018-11-29T13:30:29.042Z,14.10
2018-11-29T13:32:57.943Z,14.10
2018-11-29T13:35:30.967Z,14.20
2018-11-29T13:38:04.014Z,14.20
2018-11-29T13:40:32.768Z,14.20
2018-11-29T13:43:01.435Z,14.20
2018-11-29T13:45:30.111Z,14.20
2018-11-29T13:47:58.811Z,14.30
2018-11-29T13:50:27.543Z,14.30
2018-11-29T13:52:56.248Z,14.20
2018-11-29T13:55:25.026Z,14.30
2018-11-29T13:57:53.702Z,14.30
2018-11-29T14:00:23.228Z,14.40
2018-11-29T14:02:57.048Z,14.40
2018-11-29T14:05:25.786Z,14.40
2018-11-29T14:07:54.492Z,14.40
2018-11-29T14:10:24.115Z,14.50
2018-11-29T14:12:54.155Z,14.50
2018-11-29T14:15:28.654Z,14.60
2018-11-29T14:18:00.591Z,14.60
2018-11-29T14:20:29.448Z,14.50
2018-11-29T14:22:58.160Z,14.50
2018-11-29T14:25:26.859Z,14.50
2018-11-29T14:27:56.617Z,14.50
2018-11-29T14:30:26.240Z,14.50
2018-11-29T14:32:56.015Z,14.40
2018-11-29T14:35:24.717Z,14.40
2018-11-29T14:37:53.416Z,14.40
2018-11-29T14:40:25.060Z,14.40
2018-11-29T14:42:53.835Z,14.30
2018-11-29T14:45:25.336Z,14.40
2018-11-29T14:47:54.242Z,14.30
2018-11-29T14:50:43.681Z,14.40
2018-11-29T14:53:12.496Z,14.40
2018-11-29T14:55:41.377Z,14.30
2018-11-29T14:58:11.263Z,14.30
2018-11-29T15:00:39.922Z,14.30
2018-11-29T15:03:12.859Z,14.30
2018-11-29T15:05:41.567Z,14.30
2018-11-29T15:08:10.623Z,14.20
2018-11-29T15:10:39.397Z,14.20
2018-11-29T15:13:10.256Z,14.20
2018-11-29T15:15:39.432Z,14.20
2018-11-29T15:18:08.952Z,14.10
2018-11-29T15:20:40.903Z,14.10
2018-11-29T15:23:10.420Z,14.10
2018-11-29T15:25:39.125Z,14.10
2018-11-29T15:28:07.831Z,14.10
2018-11-29T15:30:36.532Z,14.00
2018-11-29T15:33:05.394Z,14.00
2018-11-29T15:35:34.168Z,14.00
2018-11-29T15:38:03.020Z,14.00
2018-11-29T15:40:33.519Z,14.00
2018-11-29T15:43:02.196Z,14.00
2018-11-29T15:45:30.936Z,14.00
2018-11-29T15:47:59.788Z,14.00
2018-11-29T15:50:28.732Z,13.90
2018-11-29T15:52:57.551Z,13.90
2018-11-29T15:55:26.263Z,13.80
2018-11-29T15:57:55.090Z,13.80
2018-11-29T16:00:26.851Z,13.70
2018-11-29T16:02:57.317Z,13.70
2018-11-29T16:05:26.038Z,13.60
2018-11-29T16:07:54.821Z,13.50
2018-11-29T16:10:24.581Z,13.50
2018-11-29T16:12:53.267Z,13.40
2018-11-29T16:15:22.187Z,13.30
2018-11-29T16:17:51.755Z,13.20
2018-11-29T16:20:21.692Z,13.10
2018-11-29T16:22:50.403Z,13.10
2018-11-29T16:25:19.197Z,12.90
2018-11-29T16:27:47.954Z,12.90
2018-11-29T16:30:24.771Z,12.70
2018-11-29T16:32:53.999Z,12.60
2018-11-29T16:35:22.702Z,12.50
2018-11-29T16:37:51.427Z,12.40
2018-11-29T16:40:20.206Z,12.30
2018-11-29T16:42:48.882Z,12.10
2018-11-29T16:45:17.569Z,12.10
2018-11-29T16:47:46.310Z,12.00
2018-11-29T16:50:16.001Z,11.80
2018-11-29T16:52:44.779Z,11.80
2018-11-29T16:55:13.672Z,11.70
2018-11-29T16:57:45.138Z,11.70
2018-11-29T17:00:16.413Z,11.60
2018-11-29T17:02:45.091Z,11.50
2018-11-29T17:05:14.434Z,11.50
2018-11-29T17:07:43.232Z,11.40
2018-11-29T17:10:15.071Z,11.30
2018-11-29T17:12:45.367Z,11.20
2018-11-29T17:15:16.129Z,11.10
2018-11-29T17:17:44.842Z,11.00
2018-11-29T17:20:14.850Z,11.00
2018-11-29T17:22:43.990Z,11.00
2018-11-29T17:25:13.264Z,10.90
2018-11-29T17:27:42.023Z,10.80
2018-11-29T17:30:21.041Z,10.70
2018-11-29T17:32:51.716Z,10.70
2018-11-29T17:35:20.431Z,10.50
2018-11-29T17:37:49.254Z,10.60
2018-11-29T17:40:21.728Z,10.50
2018-11-29T17:42:51.295Z,10.60
2018-11-29T17:45:23.891Z,10.50
2018-11-29T17:47:53.921Z,10.40
2018-11-29T17:50:26.594Z,10.40
2018-11-29T17:52:55.318Z,10.40
2018-11-29T17:55:24.040Z,10.40
2018-11-29T17:57:52.804Z,10.30
2018-11-29T18:00:23.542Z,10.30
2018-11-29T18:02:52.234Z,10.30
2018-11-29T18:05:21.002Z,10.20
2018-11-29T18:07:49.664Z,10.20
2018-11-29T18:10:20.675Z,10.20
2018-11-29T18:12:52.942Z,10.10
2018-11-29T18:15:25.007Z,10.10
2018-11-29T18:17:53.713Z,10.10
2018-11-29T18:20:22.382Z,10.00
2018-11-29T18:22:51.082Z,10.00
2018-11-29T18:25:19.850Z,10.00
2018-11-29T18:27:50.397Z,9.90
2018-11-29T18:30:20.224Z,9.90
2018-11-29T18:32:48.926Z,9.90
2018-11-29T18:35:17.619Z,9.90
2018-11-29T18:37:46.331Z,9.90
2018-11-29T18:40:17.895Z,9.90
2018-11-29T18:42:47.856Z,9.90
2018-11-29T18:45:17.516Z,9.90
2018-11-29T18:47:48.281Z,10.00
2018-11-29T18:50:19.809Z,10.00
2018-11-29T18:52:48.745Z,10.00
2018-11-29T18:55:17.717Z,9.90
2018-11-29T18:57:46.467Z,9.90
2018-11-29T19:00:17.445Z,9.90
2018-11-29T19:02:46.160Z,9.90
2018-11-29T19:05:15.055Z,9.90
2018-11-29T19:07:43.920Z,10.00
2018-11-29T19:10:14.101Z,9.90
2018-11-29T19:12:49.008Z,10.00
2018-11-29T19:15:17.732Z,10.00
2018-11-29T19:17:46.415Z,10.00
2018-11-29T19:20:15.146Z,10.10
2018-11-29T19:22:43.842Z,10.10
2018-11-29T19:25:15.724Z,10.10
2018-11-29T19:27:44.483Z,10.10
2018-11-29T19:30:18.097Z,10.20
2018-11-29T19:32:48.469Z,10.20
2018-11-29T19:35:17.138Z,10.30
2018-11-29T19:37:45.816Z,10.30
2018-11-29T19:40:15.428Z,10.40
2018-11-29T19:42:44.144Z,10.50
2018-11-29T19:45:14.069Z,10.60
2018-11-29T19:47:42.766Z,10.60
2018-11-29T19:50:17.575Z,10.70
2018-11-29T19:52:47.551Z,10.80
2018-11-29T19:55:21.717Z,10.90
2018-11-29T19:57:50.432Z,11.00
2018-11-29T20:00:19.252Z,11.00
2018-11-29T20:02:48.659Z,11.00
2018-11-29T20:05:17.322Z,11.00
2018-11-29T20:07:46.044Z,10.90
2018-11-29T20:10:16.549Z,10.90
2018-11-29T20:12:46.188Z,11.00
2018-11-29T20:15:20.003Z,11.00
2018-11-29T20:17:48.735Z,11.00
2018-11-29T20:20:17.451Z,11.00
2018-11-29T20:22:46.143Z,11.10
2018-11-29T20:25:18.765Z,11.10
2018-11-29T20:27:47.432Z,11.00
2018-11-29T20:30:20.101Z,11.10
2018-11-29T20:32:50.897Z,11.00
2018-11-29T20:35:19.798Z,11.10
2018-11-29T20:37:49.384Z,11.10
2018-11-29T20:40:23.874Z,11.10
2018-11-29T20:42:53.699Z,11.10
2018-11-29T20:45:25.737Z,11.00
2018-11-29T20:47:54.427Z,11.10
2018-11-29T20:50:24.579Z,11.00
2018-11-29T20:52:54.264Z,11.00
2018-11-29T20:55:27.884Z,11.00
2018-11-29T20:57:56.676Z,11.00
2018-11-29T21:00:25.354Z,11.00
2018-11-29T21:02:54.052Z,11.10
2018-11-29T21:05:23.621Z,11.10
2018-11-29T21:07:59.312Z,11.10
2018-11-29T21:10:28.092Z,11.00
2018-11-29T21:13:02.003Z,11.10
2018-11-29T21:15:30.674Z,11.10
2018-11-29T21:17:59.359Z,11.10
2018-11-29T21:20:28.043Z,11.10
2018-11-29T21:22:56.723Z,11.10
2018-11-29T21:25:25.968Z,11.10
2018-11-29T21:27:54.696Z,11.10
2018-11-29T21:30:23.380Z,11.10
2018-11-29T21:32:52.067Z,11.10
2018-11-29T21:35:22.275Z,11.10
2018-11-29T21:37:52.027Z,11.10
2018-11-29T21:40:27.063Z,11.10
2018-11-29T21:42:55.774Z,11.00
2018-11-29T21:45:24.482Z,11.10
2018-11-29T21:47:53.311Z,11.00
2018-11-29T21:50:22.047Z,11.00
2018-11-29T21:52:50.724Z,11.10
2018-11-29T21:55:19.472Z,11.10
2018-11-29T21:57:48.135Z,11.10
2018-11-29T22:00:18.521Z,11.10
2018-11-29T22:02:51.628Z,11.00
2018-11-29T22:05:20.300Z,11.10
2018-11-29T22:07:48.999Z,11.10
2018-11-29T22:10:17.687Z,11.00
2018-11-29T22:12:46.456Z,10.90
2018-11-29T22:15:15.283Z,10.90
2018-11-29T22:18:20.736Z,10.90
2018-11-29T22:20:51.844Z,10.90
2018-11-29T22:23:20.601Z,10.90
2018-11-29T22:25:49.348Z,10.90
2018-11-29T22:28:18.047Z,10.90
2018-11-29T22:30:46.765Z,10.90
2018-11-29T22:33:15.435Z,10.90
2018-11-29T22:35:44.260Z,10.80
2018-11-29T22:38:12.930Z,10.90
2018-11-29T22:40:41.752Z,10.80
2018-11-29T22:43:10.511Z,10.80
2018-11-29T22:45:39.192Z,10.80
2018-11-29T22:48:07.968Z,10.80
2018-11-29T22:50:36.723Z,10.80
2018-11-29T22:53:05.878Z,10.70
2018-11-29T22:55:34.575Z,10.80
2018-11-29T22:58:03.307Z,10.80
2018-11-29T23:00:37.392Z,10.80
2018-11-29T23:03:06.259Z,10.80
2018-11-29T23:05:34.963Z,10.80
2018-11-29T23:08:03.822Z,10.80
2018-11-29T23:10:32.519Z,10.80
2018-11-29T23:13:01.206Z,10.80
2018-11-29T23:15:29.887Z,10.80
2018-11-29T23:17:58.566Z,10.80
2018-11-29T23:20:27.296Z,10.80
2018-11-29T23:22:56.131Z,10.80
2018-11-29T23:25:24.803Z,10.80
2018-11-29T23:27:53.507Z,10.80
2018-11-29T23:30:22.231Z,10.90
2018-11-29T23:32:50.967Z,10.90
2018-11-29T23:35:19.632Z,10.90
2018-11-29T23:37:48.364Z,10.90
2018-11-29T23:40:17.708Z,10.90
2018-11-29T23:42:46.620Z,10.90
2018-11-29T23:45:15.359Z,10.90
2018-11-29T23:47:44.068Z,10.90
2018-11-29T23:50:16.816Z,10.90
2018-11-29T23:52:45.834Z,10.80
2018-11-29T23:55:15.783Z,10.90
2018-11-29T23:57:44.496Z,10.90
